Time;durP1;ratioP1;P1;durP2;ratioP2;P2;SDS_P1;SDS_P2;PMS_P1;PMS_P2;Temp;Humidity;BMP_temperature;BMP_pressure;BME280_temperature;BME280_humidity;BME280_pressure;Samples;Min_cycle;Max_cycle;Signal;HPM_P1;HPM_P2
2022/06/01 00:01:20;;;;;;;;;;;21.20;51.00;;;;;;465940;255;1744;-39
2022/06/01 00:03:22;;;;;;;;;;;21.20;51.00;;;;;;467627;255;1225;-39
2022/06/01 00:05:23;;;;;;;;;;;21.10;51.00;;;;;;465923;255;1211;-39
2022/06/01 00:07:25;;;;;;;;;;;21.10;50.90;;;;;;468073;254;1259;-39
2022/06/01 00:09:26;;;;;;;;;;;21.20;51.00;;;;;;466211;255;2403;-40
2022/06/01 00:11:27;;;;;;;;;;;21.10;51.00;;;;;;467665;255;1200;-39
2022/06/01 00:13:28;;;;;;;;;;;21.20;51.00;;;;;;466267;255;1090;-39
2022/06/01 00:15:30;;;;;;;;;;;21.10;51.00;;;;;;467861;254;1356;-39
2022/06/01 00:17:31;;;;;;;;;;;21.10;51.00;;;;;;466244;255;2209;-40
2022/06/01 00:19:33;;;;;;;;;;;21.20;51.00;;;;;;467921;254;2115;-39
2022/06/01 00:21:34;;;;;;;;;;;21.20;51.00;;;;;;465796;255;1212;-39
2022/06/01 00:23:35;;;;;;;;;;;21.20;51.00;;;;;;467699;255;1238;-39
2022/06/01 00:25:37;;;;;;;;;;;21.20;51.00;;;;;;465941;255;1196;-39
2022/06/01 00:27:38;;;;;;;;;;;21.20;51.00;;;;;;467726;254;1331;-39
2022/06/01 00:29:39;;;;;;;;;;;21.20;51.10;;;;;;466224;255;1293;-39
2022/06/01 00:31:41;;;;;;;;;;;21.20;51.00;;;;;;467773;254;1344;-39
2022/06/01 00:33:43;;;;;;;;;;;21.10;51.10;;;;;;466133;255;1213;-39
2022/06/01 00:35:44;;;;;;;;;;;21.10;51.00;;;;;;467737;254;1553;-40
2022/06/01 00:37:45;;;;;;;;;;;21.10;51.10;;;;;;465970;255;2142;-39
2022/06/01 00:39:47;;;;;;;;;;;21.10;51.10;;;;;;467873;254;1337;-39
2022/06/01 00:41:48;;;;;;;;;;;21.10;51.10;;;;;;466035;255;2170;-39
2022/06/01 00:43:49;;;;;;;;;;;21.10;51.10;;;;;;467994;254;1331;-40
2022/06/01 00:45:50;;;;;;;;;;;21.20;51.00;;;;;;465849;255;1262;-39
2022/06/01 00:47:52;;;;;;;;;;;21.20;51.00;;;;;;467729;254;1332;-39
2022/06/01 00:49:53;;;;;;;;;;;21.10;51.00;;;;;;465917;255;1221;-39
2022/06/01 00:51:54;;;;;;;;;;;21.20;51.10;;;;;;467899;254;1307;-39
2022/06/01 00:53:56;;;;;;;;;;;21.20;51.00;;;;;;465820;255;1280;-39
2022/06/01 00:55:57;;;;;;;;;;;21.20;51.00;;;;;;467619;255;1229;-39
2022/06/01 00:57:58;;;;;;;;;;;21.20;51.10;;;;;;466193;255;2129;-39
2022/06/01 01:00:00;;;;;;;;;;;21.10;51.00;;;;;;467832;254;1156;-39
2022/06/01 01:02:02;;;;;;;;;;;21.10;51.10;;;;;;465769;255;1252;-40
2022/06/01 01:04:04;;;;;;;;;;;21.10;51.10;;;;;;467665;255;1099;-40
2022/06/01 01:06:05;;;;;;;;;;;21.10;51.10;;;;;;465824;255;1224;-39
2022/06/01 01:08:06;;;;;;;;;;;21.10;51.10;;;;;;467717;255;1288;-39
2022/06/01 01:10:08;;;;;;;;;;;21.10;51.20;;;;;;466257;255;1244;-39
2022/06/01 01:12:09;;;;;;;;;;;21.10;51.20;;;;;;467537;255;1464;-39
2022/06/01 01:14:11;;;;;;;;;;;21.00;51.30;;;;;;466214;255;1218;-39
2022/06/01 01:16:12;;;;;;;;;;;21.10;51.20;;;;;;467664;255;1540;-39
2022/06/01 01:18:13;;;;;;;;;;;21.10;51.20;;;;;;465797;255;2205;-39
2022/06/01 01:20:15;;;;;;;;;;;21.20;51.20;;;;;;468093;254;1208;-39
2022/06/01 01:22:16;;;;;;;;;;;21.10;51.00;;;;;;466006;255;1373;-39
2022/06/01 01:24:17;;;;;;;;;;;21.10;51.20;;;;;;467654;255;1145;-39
2022/06/01 01:26:19;;;;;;;;;;;21.10;51.30;;;;;;466006;255;1305;-39
2022/06/01 01:28:20;;;;;;;;;;;21.10;51.20;;;;;;467734;254;1220;-39
2022/06/01 01:30:21;;;;;;;;;;;21.10;51.20;;;;;;466132;255;1151;-39
2022/06/01 01:32:22;;;;;;;;;;;21.00;51.30;;;;;;467642;254;1520;-39
2022/06/01 01:34:24;;;;;;;;;;;21.10;51.40;;;;;;466220;255;1168;-39
2022/06/01 01:36:25;;;;;;;;;;;21.10;51.30;;;;;;467805;254;1229;-40
2022/06/01 01:38:26;;;;;;;;;;;21.10;51.20;;;;;;466200;255;2146;-39
2022/06/01 01:40:28;;;;;;;;;;;21.10;51.30;;;;;;468068;254;1188;-39
2022/06/01 01:42:29;;;;;;;;;;;21.10;51.30;;;;;;466039;255;1182;-39
2022/06/01 01:44:30;;;;;;;;;;;21.10;51.30;;;;;;468026;254;1233;-39
2022/06/01 01:46:32;;;;;;;;;;;21.10;51.20;;;;;;465985;255;1230;-39
2022/06/01 01:48:33;;;;;;;;;;;21.10;51.20;;;;;;467578;255;1252;-39
2022/06/01 01:50:34;;;;;;;;;;;21.10;51.20;;;;;;465726;255;1284;-39
2022/06/01 01:52:36;;;;;;;;;;;21.10;51.20;;;;;;467557;255;1198;-39
2022/06/01 01:54:37;;;;;;;;;;;21.10;51.30;;;;;;466112;255;1685;-39
2022/06/01 01:56:38;;;;;;;;;;;21.10;51.30;;;;;;467759;254;1319;-39
2022/06/01 01:58:40;;;;;;;;;;;21.10;51.30;;;;;;466081;255;2210;-39
2022/06/01 02:00:41;;;;;;;;;;;21.10;51.30;;;;;;468053;254;2271;-39
2022/06/01 02:02:42;;;;;;;;;;;21.10;51.20;;;;;;465780;255;1241;-39
2022/06/01 02:07:03;;;;;;;;;;;21.00;51.30;;;;;;465716;255;1274;-39
2022/06/01 02:09:05;;;;;;;;;;;21.10;51.20;;;;;;467941;254;1285;-39
2022/06/01 02:13:25;;;;;;;;;;;21.10;51.20;;;;;;467746;254;1213;-40
2022/06/01 02:15:27;;;;;;;;;;;21.10;51.20;;;;;;466022;255;1335;-40
2022/06/01 02:17:28;;;;;;;;;;;21.00;51.20;;;;;;467862;254;1394;-39
2022/06/01 02:19:29;;;;;;;;;;;21.00;51.30;;;;;;465926;255;1295;-39
2022/06/01 02:21:31;;;;;;;;;;;21.00;51.40;;;;;;467639;254;1226;-39
2022/06/01 02:23:32;;;;;;;;;;;21.00;51.40;;;;;;466216;255;1274;-39
2022/06/01 02:25:33;;;;;;;;;;;21.10;51.30;;;;;;467698;254;1320;-39
2022/06/01 02:27:35;;;;;;;;;;;21.00;51.40;;;;;;465753;255;1203;-40
2022/06/01 02:29:36;;;;;;;;;;;21.10;51.30;;;;;;468068;254;1308;-39
2022/06/01 02:31:38;;;;;;;;;;;21.00;51.30;;;;;;465786;255;1167;-39
2022/06/01 02:33:39;;;;;;;;;;;21.00;51.50;;;;;;467747;254;1239;-39
2022/06/01 02:35:40;;;;;;;;;;;21.00;51.40;;;;;;465905;255;1203;-39
2022/06/01 02:37:41;;;;;;;;;;;21.00;51.40;;;;;;468063;254;2130;-40
2022/06/01 02:39:43;;;;;;;;;;;21.10;51.40;;;;;;466040;255;1250;-39
2022/06/01 02:44:03;;;;;;;;;;;21.10;51.40;;;;;;466184;255;1089;-39
2022/06/01 02:46:05;;;;;;;;;;;21.00;51.30;;;;;;467758;254;1161;-39
2022/06/01 02:48:06;;;;;;;;;;;21.00;51.40;;;;;;466057;255;1220;-39
2022/06/01 02:50:07;;;;;;;;;;;21.10;51.30;;;;;;468095;254;1194;-39
2022/06/01 02:52:08;;;;;;;;;;;21.10;51.30;;;;;;465931;255;1215;-39
2022/06/01 02:54:10;;;;;;;;;;;21.10;51.30;;;;;;467669;255;1207;-39
2022/06/01 02:56:11;;;;;;;;;;;21.10;51.20;;;;;;465716;255;1252;-39
2022/06/01 02:58:13;;;;;;;;;;;21.10;51.20;;;;;;467671;255;2192;-39
2022/06/01 03:00:17;;;;;;;;;;;21.10;51.20;;;;;;466287;255;1201;-40
2022/06/01 03:02:16;;;;;;;;;;;21.10;51.30;;;;;;467867;255;2242;-39
2022/06/01 03:04:17;;;;;;;;;;;21.10;51.30;;;;;;465917;255;1217;-39
2022/06/01 03:06:19;;;;;;;;;;;21.10;51.30;;;;;;467610;255;1369;-39
2022/06/01 03:08:20;;;;;;;;;;;21.10;51.30;;;;;;466221;255;1550;-39
2022/06/01 03:10:22;;;;;;;;;;;21.10;51.30;;;;;;468125;254;1149;-40
2022/06/01 03:12:23;;;;;;;;;;;21.10;51.20;;;;;;465827;255;1565;-39
2022/06/01 03:14:24;;;;;;;;;;;21.10;51.30;;;;;;467668;255;1222;-39
2022/06/01 03:16:25;;;;;;;;;;;21.10;51.40;;;;;;465887;255;1626;-39
2022/06/01 03:18:27;;;;;;;;;;;21.10;51.30;;;;;;467592;255;2199;-39
2022/06/01 03:20:28;;;;;;;;;;;21.10;51.30;;;;;;466163;255;1290;-39
2022/06/01 03:22:30;;;;;;;;;;;21.10;51.40;;;;;;467925;254;1239;-39
2022/06/01 03:24:32;;;;;;;;;;;21.10;51.30;;;;;;465939;255;1233;-39
2022/06/01 03:26:32;;;;;;;;;;;21.10;51.30;;;;;;467579;255;1521;-39
2022/06/01 03:28:34;;;;;;;;;;;21.10;51.30;;;;;;466256;255;1145;-39
2022/06/01 03:30:35;;;;;;;;;;;21.10;51.40;;;;;;467700;255;1111;-39
2022/06/01 03:32:36;;;;;;;;;;;21.10;51.30;;;;;;466196;255;1567;-39
2022/06/01 03:34:37;;;;;;;;;;;21.00;51.40;;;;;;467684;255;1195;-39
2022/06/01 03:36:39;;;;;;;;;;;21.10;51.40;;;;;;465909;255;1318;-39
2022/06/01 03:38:40;;;;;;;;;;;21.10;51.40;;;;;;467773;254;2146;-40
2022/06/01 03:40:42;;;;;;;;;;;21.10;51.30;;;;;;465805;255;1298;-39
2022/06/01 03:42:43;;;;;;;;;;;21.10;51.40;;;;;;467527;255;1278;-40
2022/06/01 03:47:03;;;;;;;;;;;21.10;51.40;;;;;;467575;254;1187;-39
2022/06/01 03:49:04;;;;;;;;;;;21.10;51.40;;;;;;466011;255;1221;-39
2022/06/01 03:51:06;;;;;;;;;;;21.10;51.30;;;;;;467998;254;1750;-39
2022/06/01 03:53:07;;;;;;;;;;;21.10;51.40;;;;;;465800;255;1207;-39
2022/06/01 03:55:08;;;;;;;;;;;21.10;51.40;;;;;;467955;254;1266;-39
2022/06/01 03:57:12;;;;;;;;;;;21.10;51.30;;;;;;465805;255;1369;-39
2022/06/01 03:59:11;;;;;;;;;;;21.10;51.40;;;;;;467575;255;2266;-40
2022/06/01 04:01:12;;;;;;;;;;;21.00;51.40;;;;;;465826;255;1258;-39
2022/06/01 04:03:14;;;;;;;;;;;21.10;51.40;;;;;;467570;255;1225;-39
2022/06/01 04:05:15;;;;;;;;;;;21.10;51.40;;;;;;465795;255;1223;-39
2022/06/01 04:07:16;;;;;;;;;;;21.10;51.40;;;;;;467603;255;1544;-39
2022/06/01 04:09:18;;;;;;;;;;;21.00;51.40;;;;;;465730;255;1568;-40
2022/06/01 04:11:19;;;;;;;;;;;21.10;51.30;;;;;;467510;255;1222;-39
2022/06/01 04:13:20;;;;;;;;;;;21.10;51.30;;;;;;465649;255;1205;-39
2022/06/01 04:15:21;;;;;;;;;;;21.10;51.40;;;;;;467582;255;1151;-40
2022/06/01 04:17:23;;;;;;;;;;;21.10;51.40;;;;;;465925;255;1244;-39
2022/06/01 04:19:24;;;;;;;;;;;21.10;51.40;;;;;;467811;254;2220;-39
2022/06/01 04:21:25;;;;;;;;;;;21.10;51.30;;;;;;465755;255;1201;-39
2022/06/01 04:23:27;;;;;;;;;;;21.10;51.30;;;;;;467764;254;1283;-39
2022/06/01 04:25:28;;;;;;;;;;;21.10;51.40;;;;;;465841;255;1192;-39
2022/06/01 04:27:29;;;;;;;;;;;21.10;51.40;;;;;;467535;255;1219;-39
2022/06/01 04:29:31;;;;;;;;;;;21.10;51.30;;;;;;465780;255;1080;-39
2022/06/01 04:31:32;;;;;;;;;;;21.10;51.30;;;;;;467977;254;1356;-40
2022/06/01 04:33:33;;;;;;;;;;;21.20;51.30;;;;;;465716;255;1292;-39
2022/06/01 04:35:35;;;;;;;;;;;21.20;51.20;;;;;;467528;254;1569;-39
2022/06/01 04:37:36;;;;;;;;;;;21.20;51.20;;;;;;466101;255;1183;-39
2022/06/01 04:39:37;;;;;;;;;;;21.10;51.20;;;;;;467926;254;2137;-39
2022/06/01 04:41:39;;;;;;;;;;;21.20;51.30;;;;;;465814;255;1172;-39
2022/06/01 04:43:40;;;;;;;;;;;21.20;51.30;;;;;;468007;254;1261;-40
2022/06/01 04:45:42;;;;;;;;;;;21.10;51.30;;;;;;465729;255;1407;-39
2022/06/01 04:47:43;;;;;;;;;;;21.10;51.20;;;;;;467753;254;1264;-39
2022/06/01 04:49:44;;;;;;;;;;;21.10;51.20;;;;;;465918;255;1213;-39
2022/06/01 04:51:46;;;;;;;;;;;21.10;51.30;;;;;;467445;255;1657;-39
2022/06/01 04:53:47;;;;;;;;;;;21.20;51.30;;;;;;465609;255;1228;-39
2022/06/01 04:55:48;;;;;;;;;;;21.20;51.30;;;;;;467754;254;1249;-39
2022/06/01 04:57:50;;;;;;;;;;;21.10;51.30;;;;;;465700;255;1224;-39
2022/06/01 04:59:51;;;;;;;;;;;21.10;51.30;;;;;;467603;254;2137;-39
2022/06/01 05:01:52;;;;;;;;;;;21.20;51.30;;;;;;465527;255;1282;-39
2022/06/01 05:03:53;;;;;;;;;;;21.20;51.30;;;;;;467495;254;1232;-39
2022/06/01 05:05:55;;;;;;;;;;;21.20;51.30;;;;;;465483;255;1351;-39
2022/06/01 05:07:56;;;;;;;;;;;21.20;51.20;;;;;;467453;254;1197;-40
2022/06/01 05:09:57;;;;;;;;;;;21.10;51.30;;;;;;465554;255;1262;-39
2022/06/01 05:11:59;;;;;;;;;;;21.10;51.30;;;;;;467278;255;1241;-39
2022/06/01 05:14:00;;;;;;;;;;;21.20;51.30;;;;;;465455;255;1104;-39
2022/06/01 05:16:02;;;;;;;;;;;21.10;51.30;;;;;;467512;254;1148;-39
2022/06/01 05:18:03;;;;;;;;;;;21.10;51.30;;;;;;465471;255;1729;-39
2022/06/01 05:20:04;;;;;;;;;;;21.20;51.30;;;;;;467652;254;2149;-39
2022/06/01 05:22:05;;;;;;;;;;;21.10;51.20;;;;;;465401;255;1339;-39
2022/06/01 05:24:07;;;;;;;;;;;21.10;51.30;;;;;;467327;254;1328;-39
2022/06/01 05:26:08;;;;;;;;;;;21.10;51.20;;;;;;465423;255;1231;-39
2022/06/01 05:28:09;;;;;;;;;;;21.20;51.30;;;;;;467363;254;1200;-39
2022/06/01 05:30:11;;;;;;;;;;;21.10;51.40;;;;;;465505;255;1192;-39
2022/06/01 05:32:12;;;;;;;;;;;21.10;51.40;;;;;;467193;255;1192;-40
2022/06/01 05:34:13;;;;;;;;;;;21.20;51.30;;;;;;465543;255;1354;-40
2022/06/01 05:36:15;;;;;;;;;;;21.20;51.20;;;;;;467217;254;1346;-40
2022/06/01 05:38:16;;;;;;;;;;;21.20;51.20;;;;;;465625;255;1232;-39
2022/06/01 05:40:17;;;;;;;;;;;21.20;51.10;;;;;;467268;255;2216;-39
2022/06/01 05:42:19;;;;;;;;;;;21.20;51.20;;;;;;465435;255;1184;-39
2022/06/01 05:44:20;;;;;;;;;;;21.20;51.20;;;;;;467290;254;1123;-39
2022/06/01 05:46:21;;;;;;;;;;;21.20;51.20;;;;;;465328;255;1285;-40
2022/06/01 05:48:22;;;;;;;;;;;21.20;51.20;;;;;;467148;254;1110;-39
2022/06/01 05:50:24;;;;;;;;;;;21.20;51.30;;;;;;465368;255;1253;-39
2022/06/01 05:52:25;;;;;;;;;;;21.10;51.30;;;;;;467058;254;1197;-39
2022/06/01 05:54:26;;;;;;;;;;;21.20;51.30;;;;;;465479;255;1340;-40
2022/06/01 05:56:28;;;;;;;;;;;21.20;51.30;;;;;;466985;255;1222;-39
2022/06/01 05:58:29;;;;;;;;;;;21.20;51.30;;;;;;465207;255;1276;-39
2022/06/01 06:00:30;;;;;;;;;;;21.10;51.30;;;;;;467118;253;2204;-39
2022/06/01 06:02:32;;;;;;;;;;;21.20;51.30;;;;;;465361;255;1245;-39
2022/06/01 06:04:33;;;;;;;;;;;21.20;51.30;;;;;;467315;254;1221;-39
2022/06/01 06:06:34;;;;;;;;;;;21.10;51.30;;;;;;465226;255;1296;-40
2022/06/01 06:08:36;;;;;;;;;;;21.20;51.20;;;;;;467135;254;1210;-39
2022/06/01 06:10:37;;;;;;;;;;;21.20;51.30;;;;;;465281;255;1297;-39
2022/06/01 06:12:38;;;;;;;;;;;21.20;51.20;;;;;;467032;255;1253;-39
2022/06/01 06:14:40;;;;;;;;;;;21.20;51.20;;;;;;465108;255;1253;-40
2022/06/01 06:16:43;;;;;;;;;;;21.20;51.10;;;;;;467215;254;1319;-40
2022/06/01 06:18:43;;;;;;;;;;;21.30;51.10;;;;;;465082;256;1307;-39
2022/06/01 06:20:44;;;;;;;;;;;21.30;51.10;;;;;;467123;254;2223;-39
2022/06/01 06:22:45;;;;;;;;;;;21.30;51.00;;;;;;465105;255;1308;-40
2022/06/01 06:24:46;;;;;;;;;;;21.30;51.00;;;;;;466924;254;1548;-40
2022/06/01 06:26:48;;;;;;;;;;;21.30;51.00;;;;;;465309;255;1200;-39
2022/06/01 06:28:49;;;;;;;;;;;21.30;51.00;;;;;;467025;254;1288;-40
2022/06/01 06:30:51;;;;;;;;;;;21.30;51.10;;;;;;464906;255;1312;-39
2022/06/01 06:32:52;;;;;;;;;;;21.30;51.00;;;;;;466991;255;1279;-40
2022/06/01 06:34:53;;;;;;;;;;;21.30;51.00;;;;;;465124;255;1347;-39
2022/06/01 06:36:54;;;;;;;;;;;21.30;50.90;;;;;;466985;254;1600;-40
2022/06/01 06:38:56;;;;;;;;;;;21.30;50.90;;;;;;465168;255;1268;-39
2022/06/01 06:40:57;;;;;;;;;;;21.30;51.00;;;;;;467249;254;2192;-40
2022/06/01 06:42:59;;;;;;;;;;;21.30;50.90;;;;;;465348;255;1189;-39
2022/06/01 06:45:02;;;;;;;;;;;21.30;51.00;;;;;;467002;255;1314;-40
2022/06/01 06:47:01;;;;;;;;;;;21.30;51.00;;;;;;464883;256;1520;-40
2022/06/01 06:49:03;;;;;;;;;;;21.30;51.00;;;;;;466929;255;1242;-40
2022/06/01 06:51:04;;;;;;;;;;;21.30;51.00;;;;;;464937;255;1207;-40
2022/06/01 06:53:05;;;;;;;;;;;21.30;51.10;;;;;;467083;254;1212;-40
2022/06/01 06:55:07;;;;;;;;;;;21.30;51.10;;;;;;465297;255;1282;-40
2022/06/01 06:57:08;;;;;;;;;;;21.20;51.10;;;;;;467185;255;1343;-39
2022/06/01 06:59:12;;;;;;;;;;;21.30;51.10;;;;;;465512;255;2194;-39
2022/06/01 07:01:11;;;;;;;;;;;21.30;51.10;;;;;;467351;255;1850;-39
2022/06/01 07:03:12;;;;;;;;;;;21.30;51.10;;;;;;465177;255;1289;-39
2022/06/01 07:06:08;;;;;;;;;;;21.30;51.10;;;;;;466820;254;1290;-39
2022/06/01 07:07:16;;;;;;;;;;;21.30;51.20;;;;;;463669;256;1677;-39
2022/06/01 07:09:17;;;;;;;;;;;21.30;51.10;;;;;;467634;254;1390;-39
2022/06/01 07:11:18;;;;;;;;;;;21.30;51.10;;;;;;465756;255;1074;-39
2022/06/01 07:13:20;;;;;;;;;;;21.30;51.10;;;;;;467121;254;1112;-39
2022/06/01 07:15:21;;;;;;;;;;;21.20;51.10;;;;;;465409;255;1151;-40
2022/06/01 07:17:24;;;;;;;;;;;21.30;51.10;;;;;;466727;254;1285;-40
2022/06/01 07:19:24;;;;;;;;;;;21.30;51.10;;;;;;464696;256;2205;-40
2022/06/01 07:21:25;;;;;;;;;;;21.30;51.10;;;;;;466919;254;1309;-39
2022/06/01 07:23:27;;;;;;;;;;;21.30;51.00;;;;;;465012;255;1237;-39
2022/06/01 07:25:28;;;;;;;;;;;21.30;51.10;;;;;;466900;254;1183;-39
2022/06/01 07:27:29;;;;;;;;;;;21.20;51.10;;;;;;465058;255;1291;-40
2022/06/01 07:29:30;;;;;;;;;;;21.20;51.10;;;;;;467138;255;1076;-39
2022/06/01 07:31:32;;;;;;;;;;;21.20;51.10;;;;;;465494;255;1063;-40
2022/06/01 07:33:33;;;;;;;;;;;21.30;51.10;;;;;;467323;254;1057;-39
2022/06/01 07:35:34;;;;;;;;;;;21.30;51.10;;;;;;465477;255;1123;-39
2022/06/01 07:44:33;;;;;;;;;;;21.30;51.10;;;;;;465129;255;1300;-39
2022/06/01 07:46:34;;;;;;;;;;;21.30;51.10;;;;;;466791;254;1322;-39
2022/06/01 07:48:36;;;;;;;;;;;21.20;51.10;;;;;;465176;255;1054;-39
2022/06/01 07:50:37;;;;;;;;;;;21.30;51.10;;;;;;467327;254;1086;-39
2022/06/01 07:52:38;;;;;;;;;;;21.30;50.90;;;;;;465188;255;1220;-40
2022/06/01 07:54:40;;;;;;;;;;;21.30;50.90;;;;;;467003;255;1108;-39
2022/06/01 07:56:41;;;;;;;;;;;21.30;50.90;;;;;;464946;255;1330;-39
2022/06/01 07:58:43;;;;;;;;;;;21.30;50.90;;;;;;467117;255;1087;-40
2022/06/01 08:00:44;;;;;;;;;;;21.30;50.90;;;;;;465148;255;2445;-39
2022/06/01 08:02:45;;;;;;;;;;;21.30;51.00;;;;;;467457;254;1238;-39
2022/06/01 08:04:47;;;;;;;;;;;21.20;51.00;;;;;;465612;255;1407;-39
2022/06/01 08:06:48;;;;;;;;;;;21.30;51.10;;;;;;467301;254;1304;-39
2022/06/01 08:08:49;;;;;;;;;;;21.30;51.00;;;;;;464876;255;1101;-39
2022/06/01 08:10:50;;;;;;;;;;;21.30;51.10;;;;;;467471;254;1242;-39
2022/06/01 08:13:07;;;;;;;;;;;21.30;51.10;;;;;;465551;255;1110;-39
2022/06/01 08:15:08;;;;;;;;;;;21.20;51.10;;;;;;467027;255;1164;-40
2022/06/01 08:17:10;;;;;;;;;;;21.30;51.10;;;;;;464809;255;1223;-39
2022/06/01 08:19:11;;;;;;;;;;;21.20;51.10;;;;;;466816;255;1300;-39
2022/06/01 08:21:12;;;;;;;;;;;21.20;51.10;;;;;;465363;255;2202;-40
2022/06/01 08:23:14;;;;;;;;;;;21.30;51.10;;;;;;466673;254;1261;-39
2022/06/01 08:25:16;;;;;;;;;;;21.20;51.10;;;;;;464874;255;1265;-39
2022/06/01 08:27:17;;;;;;;;;;;21.30;51.00;;;;;;466579;254;1244;-39
2022/06/01 08:29:18;;;;;;;;;;;21.20;51.00;;;;;;464647;255;1197;-39
2022/06/01 08:31:19;;;;;;;;;;;21.20;51.00;;;;;;466545;254;1510;-39
2022/06/01 08:33:23;;;;;;;;;;;21.20;51.10;;;;;;464767;255;1256;-39
2022/06/01 08:35:22;;;;;;;;;;;21.20;51.00;;;;;;466604;255;1826;-39
2022/06/01 08:37:23;;;;;;;;;;;21.20;51.00;;;;;;464651;255;1331;-39
2022/06/01 08:39:25;;;;;;;;;;;21.20;51.10;;;;;;466397;254;1093;-39
2022/06/01 08:41:26;;;;;;;;;;;21.20;50.90;;;;;;464511;255;2202;-40
2022/06/01 08:43:28;;;;;;;;;;;21.20;51.00;;;;;;466439;254;1225;-39
2022/06/01 08:45:29;;;;;;;;;;;21.20;51.00;;;;;;464589;255;1329;-39
2022/06/01 08:47:30;;;;;;;;;;;21.30;50.90;;;;;;466603;254;1277;-39
2022/06/01 08:49:33;;;;;;;;;;;21.30;50.80;;;;;;464774;255;1169;-39
2022/06/01 08:51:38;;;;;;;;;;;21.30;50.00;;;;;;501570;234;1152;-42
2022/06/01 08:53:40;;;;;;;;;;;21.20;50.90;;;;;;490536;241;1210;-42
2022/06/01 08:55:42;;;;;;;;;;;21.20;51.00;;;;;;490585;240;1317;-42
2022/06/01 08:57:42;;;;;;;;;;;21.20;50.90;;;;;;490830;240;1454;-39
2022/06/01 08:59:44;;;;;;;;;;;21.30;50.80;;;;;;490528;240;1261;-39
2022/06/01 09:01:45;;;;;;;;;;;21.30;50.80;;;;;;490652;240;1274;-39
2022/06/01 09:03:46;;;;;;;;;;;21.20;50.80;;;;;;490917;240;1131;-39
2022/06/01 09:05:47;;;;;;;;;;;21.20;50.80;;;;;;490968;240;1189;-39
2022/06/01 09:07:49;;;;;;;;;;;21.20;50.80;;;;;;491176;240;1152;-39
2022/06/01 09:09:50;;;;;;;;;;;21.20;50.90;;;;;;490316;240;2176;-39
2022/06/01 09:11:51;;;;;;;;;;;21.20;50.90;;;;;;490584;240;1283;-39
2022/06/01 09:13:53;;;;;;;;;;;21.20;50.70;;;;;;490795;240;1105;-39
2022/06/01 09:15:54;;;;;;;;;;;21.20;50.80;;;;;;490515;240;1437;-39
2022/06/01 09:17:55;;;;;;;;;;;21.20;50.70;;;;;;490655;240;1252;-39
2022/06/01 09:24:35;;;;;;;;;;;21.20;50.70;;;;;;490853;242;1067;-39
2022/06/01 09:26:37;;;;;;;;;;;21.20;50.70;;;;;;490856;240;1064;-39
2022/06/01 09:28:39;;;;;;;;;;;21.30;50.70;;;;;;490695;240;1189;-39
2022/06/01 09:30:40;;;;;;;;;;;21.30;50.60;;;;;;490431;240;2113;-39
2022/06/01 09:32:41;;;;;;;;;;;21.30;50.60;;;;;;490564;240;1360;-39
2022/06/01 09:34:43;;;;;;;;;;;21.30;50.60;;;;;;490621;240;1254;-39
2022/06/01 09:36:44;;;;;;;;;;;21.30;50.50;;;;;;490385;240;1297;-39
2022/06/01 09:38:45;;;;;;;;;;;21.30;50.50;;;;;;490243;240;1235;-39
2022/06/01 09:40:47;;;;;;;;;;;21.30;50.60;;;;;;490324;240;1351;-39
2022/06/01 09:42:48;;;;;;;;;;;21.30;50.50;;;;;;490546;240;1193;-39
2022/06/01 09:44:49;;;;;;;;;;;21.30;50.50;;;;;;491065;240;1064;-39
2022/06/01 09:46:52;;;;;;;;;;;21.30;50.50;;;;;;490980;240;1246;-39
2022/06/01 09:48:52;;;;;;;;;;;21.20;50.50;;;;;;490949;240;1379;-39
2022/06/01 09:50:53;;;;;;;;;;;21.30;50.60;;;;;;490678;240;2136;-39
2022/06/01 09:52:55;;;;;;;;;;;21.30;50.50;;;;;;490617;240;1374;-39
2022/06/01 09:54:56;;;;;;;;;;;21.30;50.50;;;;;;490713;240;1311;-39
2022/06/01 09:56:57;;;;;;;;;;;21.30;50.50;;;;;;490657;240;1232;-39
2022/06/01 10:08:17;;;;;;;;;;;21.30;50.40;;;;;;490983;241;1554;-39
2022/06/01 10:10:18;;;;;;;;;;;21.30;50.30;;;;;;490817;240;2179;-39
2022/06/01 10:12:20;;;;;;;;;;;21.30;50.30;;;;;;490391;240;1197;-39
2022/06/01 10:14:21;;;;;;;;;;;21.30;50.30;;;;;;490416;240;1430;-39
2022/06/01 10:16:22;;;;;;;;;;;21.20;50.40;;;;;;490354;240;1491;-39
2022/06/01 10:18:24;;;;;;;;;;;21.30;50.40;;;;;;490501;240;1355;-39
2022/06/01 10:20:25;;;;;;;;;;;21.30;50.40;;;;;;490582;240;1262;-39
2022/06/01 10:22:26;;;;;;;;;;;21.30;50.30;;;;;;490808;240;1671;-39
2022/06/01 10:24:28;;;;;;;;;;;21.30;50.30;;;;;;490887;240;1232;-39
2022/06/01 10:26:29;;;;;;;;;;;21.30;50.20;;;;;;490743;240;1327;-39
2022/06/01 10:28:30;;;;;;;;;;;21.30;50.20;;;;;;491229;240;1055;-39
2022/06/01 10:30:32;;;;;;;;;;;21.40;50.30;;;;;;490788;240;2188;-39
2022/06/01 10:32:35;;;;;;;;;;;21.30;50.30;;;;;;490999;240;1225;-39
2022/06/01 10:34:34;;;;;;;;;;;21.30;50.30;;;;;;490539;240;1326;-39
2022/06/01 10:36:36;;;;;;;;;;;21.30;50.40;;;;;;490464;240;1239;-39
2022/06/01 10:38:41;;;;;;;;;;;21.30;50.40;;;;;;490897;240;1452;-39
2022/06/01 10:40:38;;;;;;;;;;;21.20;50.40;;;;;;490906;240;1441;-39
2022/06/01 10:44:59;;;;;;;;;;;21.30;50.30;;;;;;491207;242;1204;-39
2022/06/01 10:47:00;;;;;;;;;;;21.40;50.30;;;;;;490836;240;1228;-39
2022/06/01 10:49:02;;;;;;;;;;;21.30;50.30;;;;;;490938;240;1333;-40
2022/06/01 10:51:04;;;;;;;;;;;21.30;50.20;;;;;;490767;240;2204;-39
2022/06/01 10:53:05;;;;;;;;;;;21.30;50.20;;;;;;490649;240;1612;-39
2022/06/01 10:55:06;;;;;;;;;;;21.30;50.20;;;;;;490715;240;1079;-39
2022/06/01 10:57:08;;;;;;;;;;;21.30;50.20;;;;;;490710;240;994;-39
2022/06/01 10:59:09;;;;;;;;;;;21.40;50.20;;;;;;490750;240;1242;-39
2022/06/01 11:01:11;;;;;;;;;;;21.30;50.20;;;;;;490418;241;1176;-39
2022/06/01 11:03:12;;;;;;;;;;;21.30;50.20;;;;;;490442;240;1230;-39
2022/06/01 11:05:14;;;;;;;;;;;21.30;50.20;;;;;;490546;240;1933;-39
2022/06/01 11:07:15;;;;;;;;;;;21.30;50.30;;;;;;490546;240;1333;-39
2022/06/01 11:09:16;;;;;;;;;;;21.30;50.30;;;;;;490436;240;1175;-39
2022/06/01 11:11:18;;;;;;;;;;;21.30;50.20;;;;;;490527;240;2188;-39
2022/06/01 11:13:19;;;;;;;;;;;21.30;50.20;;;;;;490193;240;1266;-39
2022/06/01 11:15:20;;;;;;;;;;;21.30;50.10;;;;;;490266;240;1232;-40
2022/06/01 11:17:22;;;;;;;;;;;21.30;50.00;;;;;;490434;240;1461;-39
2022/06/01 11:19:23;;;;;;;;;;;21.30;50.10;;;;;;490758;240;1224;-39
2022/06/01 11:21:24;;;;;;;;;;;21.30;50.10;;;;;;490630;240;1067;-39
2022/06/01 11:23:25;;;;;;;;;;;21.30;50.10;;;;;;490827;240;1226;-39
2022/06/01 11:25:27;;;;;;;;;;;21.30;50.10;;;;;;490571;242;1532;-39
2022/06/01 11:27:28;;;;;;;;;;;21.30;50.10;;;;;;490738;240;1261;-39
2022/06/01 11:29:29;;;;;;;;;;;21.30;50.10;;;;;;491358;240;1058;-39
2022/06/01 11:31:31;;;;;;;;;;;21.30;50.10;;;;;;491267;240;2192;-39
2022/06/01 11:33:32;;;;;;;;;;;21.30;50.00;;;;;;490855;240;1129;-39
2022/06/01 11:35:34;;;;;;;;;;;21.30;50.00;;;;;;491308;240;1059;-39
2022/06/01 11:37:35;;;;;;;;;;;21.30;50.00;;;;;;490800;240;1182;-39
2022/06/01 11:39:37;;;;;;;;;;;21.30;50.00;;;;;;490936;240;1180;-39
2022/06/01 11:41:38;;;;;;;;;;;21.30;50.00;;;;;;490718;240;1199;-40
2022/06/01 11:43:39;;;;;;;;;;;21.30;50.00;;;;;;490977;240;1213;-39
2022/06/01 11:45:40;;;;;;;;;;;21.30;50.10;;;;;;491366;240;1184;-39
2022/06/01 11:47:43;;;;;;;;;;;21.30;50.20;;;;;;490696;240;1080;-39
2022/06/01 11:49:43;;;;;;;;;;;21.30;50.10;;;;;;490725;240;2071;-39
2022/06/01 11:51:45;;;;;;;;;;;21.30;50.10;;;;;;490381;240;2120;-39
2022/06/01 11:53:46;;;;;;;;;;;21.30;50.10;;;;;;490524;240;1300;-39
2022/06/01 11:55:48;;;;;;;;;;;21.30;50.10;;;;;;491342;240;1274;-39
2022/06/01 11:57:49;;;;;;;;;;;21.30;50.10;;;;;;490787;240;2520;-39
2022/06/01 11:59:50;;;;;;;;;;;21.30;50.20;;;;;;491199;240;1058;-39
2022/06/01 12:01:53;;;;;;;;;;;21.30;50.10;;;;;;491073;240;1300;-39
2022/06/01 12:03:53;;;;;;;;;;;21.30;50.00;;;;;;490883;240;2082;-39
2022/06/01 12:05:54;;;;;;;;;;;21.30;50.00;;;;;;490810;240;1147;-39
2022/06/01 12:07:55;;;;;;;;;;;21.30;50.10;;;;;;490864;240;1137;-39
2022/06/01 12:09:57;;;;;;;;;;;21.30;50.10;;;;;;491347;240;1144;-39
2022/06/01 12:11:58;;;;;;;;;;;21.30;50.10;;;;;;490634;240;2177;-39
2022/06/01 12:13:59;;;;;;;;;;;21.30;50.10;;;;;;490920;240;1118;-39
2022/06/01 12:16:01;;;;;;;;;;;21.30;50.00;;;;;;490474;240;1106;-39
2022/06/01 12:18:02;;;;;;;;;;;21.30;50.00;;;;;;490614;240;1245;-39
2022/06/01 12:20:03;;;;;;;;;;;21.30;50.00;;;;;;491268;240;1138;-39
2022/06/01 12:28:30;;;;;;;;;;;21.30;50.00;;;;;;490591;240;1162;-39
2022/06/01 12:28:46;;;;;;;;;;;21.30;50.00;;;;;;490474;242;1602;-39
2022/06/01 12:30:46;;;;;;;;;;;21.30;50.10;;;;;;490572;240;2278;-39
2022/06/01 12:32:47;;;;;;;;;;;21.20;50.10;;;;;;490792;240;1677;-39
2022/06/01 12:34:49;;;;;;;;;;;21.20;50.10;;;;;;491312;240;1111;-39